Home   Weather   USA   Hartford   Past weeks
Flag for USA

Past Weather in Hartford, Wisconsin, USA — Yesterday and Last 2 Weeks

Currently: 52 °F. Sunny. (Weather station: West Bend Municipal Airport, USA). See more current weather

Past Weather in Hartford — Graph

°F

Hartford Temperature Yesterday

Maximum temperature yesterday: 54 °F (at 1:55 pm)
Minimum temperature yesterday: 32 °F (at 12:35 am)
Average temperature yesterday: 40 °F

High & Low Weather Summary for the Past Weeks

 TemperatureHumidityPressure
High55 °F (Feb 21, 1:55 pm)100% (Feb 12, 1:55 am)30.20 "Hg (Feb 12, 1:55 am)
Low7 °F (Feb 17, 5:35 am)26% (Feb 22, 12:35 pm)29.58 "Hg (Feb 26, 2:55 pm)
Average31 °F71%29.93 "Hg
* Reported Feb 11 2:15 pm — Feb 26 2:55 pm, Hartford. Weather by CustomWeather, © 2024

Note: Actual official high and low records may vary slightly from our data, if they occured in-between our weather recording intervals... More about our weather records

Hartford Weather History for the Previous 24 Hours

Scroll right to see more
 ConditionsComfort  
Time TempWeatherWind HumidityBarometerVisibility
2:55 pm
Mon, Feb 26
50 °FSunny.12 mph58%29.58 "Hg10 mi
2:35 pm48 °FSunny.13 mph62%29.60 "Hg10 mi
1:55 pm46 °FSunny.12 mph66%29.63 "Hg10 mi
1:35 pm45 °FSunny.10 mph66%29.64 "Hg10 mi
1:15 pm46 °FSunny.13 mph62%29.66 "Hg10 mi
12:55 pm46 °FSunny.12 mph62%29.68 "Hg10 mi
12:35 pm46 °FSunny.10 mph57%29.70 "Hg10 mi
11:55 am43 °FSunny.14 mph66%29.75 "Hg10 mi
11:35 am43 °FSunny.12 mph71%29.76 "Hg10 mi
11:15 am43 °FSunny.15 mph66%29.78 "Hg10 mi
10:55 am43 °FSunny.15 mph66%29.79 "Hg10 mi
10:35 am43 °FSunny.13 mph66%29.80 "Hg10 mi
10:15 am43 °FSunny.10 mph61%29.82 "Hg10 mi
9:55 am41 °FSunny.16 mph66%29.82 "Hg10 mi
9:35 am41 °FSunny.15 mph66%29.83 "Hg10 mi
9:15 am41 °FSunny.15 mph66%29.83 "Hg10 mi
8:55 am39 °FSunny.14 mph70%29.84 "Hg10 mi
8:35 am37 °FSunny.13 mph65%29.85 "Hg10 mi
7:55 am36 °FSunny.8 mph75%29.86 "Hg10 mi
7:35 am34 °FSunny.7 mph81%29.86 "Hg10 mi
6:55 am32 °FSunny.6 mph93%29.86 "Hg10 mi
6:35 am30 °FSunny.5 mph100%29.86 "Hg10 mi
6:15 am30 °FClear.5 mph100%29.87 "Hg10 mi
5:55 am30 °FClear.3 mph100%29.86 "Hg10 mi
5:35 am32 °FClear.No wind93%29.86 "Hg10 mi
4:55 am32 °FClear.5 mph93%29.86 "Hg10 mi
4:35 am32 °FClear.5 mph93%29.86 "Hg10 mi
3:55 am32 °FClear.3 mph93%29.86 "Hg10 mi
3:35 am32 °FClear.3 mph93%29.86 "Hg10 mi
2:55 am32 °FClear.No wind87%29.85 "Hg10 mi
2:35 am32 °FClear.No wind87%29.85 "Hg10 mi
1:55 am34 °FClear.5 mph81%29.85 "Hg10 mi
1:35 am36 °FClear.5 mph75%29.84 "Hg10 mi
12:55 am34 °FClear.3 mph81%29.84 "Hg10 mi
12:35 am32 °FClear.3 mph87%29.84 "Hg10 mi
12:15 am32 °FPassing clouds.No wind87%29.84 "Hg10 mi
11:55 pm
Sun, Feb 25
34 °FPassing clouds.No wind75%29.85 "Hg10 mi
11:35 pm34 °FPassing clouds.No wind81%29.84 "Hg10 mi
11:15 pm34 °FPassing clouds.No wind81%29.84 "Hg10 mi
10:55 pm34 °FPassing clouds.No wind75%29.83 "Hg10 mi
10:35 pm36 °FPassing clouds.No wind70%29.83 "Hg10 mi
10:15 pm36 °FOvercast.No wind75%29.82 "Hg10 mi
9:55 pm37 °FPassing clouds.No wind65%29.82 "Hg10 mi
9:35 pm43 °FPassing clouds.No wind53%29.81 "Hg10 mi
8:55 pm43 °FOvercast.5 mph53%29.80 "Hg10 mi
8:35 pm43 °FPassing clouds.5 mph53%29.79 "Hg10 mi
7:55 pm39 °FClear.3 mph61%29.77 "Hg10 mi
7:35 pm41 °FClear.5 mph57%29.77 "Hg10 mi
7:15 pm43 °FClear.3 mph53%29.75 "Hg10 mi
6:55 pm41 °FClear.3 mph57%29.75 "Hg10 mi
5:35 pm50 °FSunny.3 mph40%29.71 "Hg10 mi
4:55 pm52 °FSunny.7 mph38%29.69 "Hg10 mi
4:35 pm54 °FSunny.10 mph35%29.69 "Hg10 mi
4:15 pm54 °FSunny.10 mph35%29.68 "Hg10 mi
Weather by CustomWeather, © 2024

See weather overview